Billinghay, United Kingdom
Current Conditions -  °F | °C
As of 9:50 PM on Monday 22 Dec 2014 (Local Time) from EGXC Reporting Station
Overcast Overcast  
Wind Chill: 12°   Ceiling: 1800
Heat Index: 12°   Visibility: 6mi
Dew Point: 10°   Wind: 23mph
Humidity: 88%   Direction: 230°SW
Pressure: 29.85"   Gusts: NA
Location:  53.08°N, 0.28°W
Report Text: EGXC 222150Z 23020KT 9999 OVC018 12/10 Q1011 WHT
Loading
Personal Weather Stations






























Interactive Weather Map New forecast layout! Learn more

10-Day Weather Forecast

Advertisements
Track Severe Weather on mobile